createdAt,value
2022-11-22T00:01:00.093Z,-1.44
2022-11-22T00:04:03.088Z,-1.46
2022-11-22T00:07:06.003Z,-1.47
2022-11-22T00:10:12.115Z,-1.49
2022-11-22T00:13:14.812Z,-1.49
2022-11-22T00:16:17.882Z,-1.43
2022-11-22T00:19:20.572Z,-1.39
2022-11-22T00:22:23.617Z,-1.27
2022-11-22T00:25:27.197Z,-1.16
2022-11-22T00:28:30.261Z,-1.34
2022-11-22T00:31:33.145Z,-1.30
2022-11-22T00:34:37.015Z,-1.31
2022-11-22T00:37:39.712Z,-1.41
2022-11-22T00:40:43.146Z,-1.44
2022-11-22T00:43:45.695Z,-1.24
2022-11-22T00:46:48.717Z,-1.22
2022-11-22T00:49:51.503Z,-1.25
2022-11-22T00:52:54.453Z,-1.37
2022-11-22T00:55:57.069Z,-1.26
2022-11-22T00:59:00.171Z,-1.18
2022-11-22T01:02:02.922Z,-1.21
2022-11-22T01:05:06.293Z,-1.07
2022-11-22T01:08:09.288Z,-1.18
2022-11-22T01:11:18.621Z,-1.16
2022-11-22T01:14:21.559Z,-1.20
2022-11-22T01:17:24.527Z,-1.19
2022-11-22T01:20:27.552Z,-1.09
2022-11-22T01:23:30.917Z,-1.36
2022-11-22T01:26:34.268Z,-1.24
2022-11-22T01:29:37.260Z,-1.17
2022-11-22T01:32:39.981Z,-1.16
2022-11-22T01:35:43.288Z,-1.27
2022-11-22T01:38:46.046Z,-1.14
2022-11-22T01:41:49.939Z,-1.24
2022-11-22T01:44:53.785Z,-1.14
2022-11-22T01:48:21.019Z,-1.15
2022-11-22T01:51:35.345Z,-1.11
2022-11-22T01:54:41.329Z,-1.18
2022-11-22T01:57:45.571Z,-1.07
2022-11-22T02:00:51.433Z,-1.00
2022-11-22T02:03:58.174Z,-0.97
2022-11-22T02:07:23.026Z,-0.92
2022-11-22T02:10:28.497Z,-0.89
2022-11-22T02:13:34.680Z,-0.84
2022-11-22T02:16:39.767Z,-0.83
2022-11-22T02:19:45.770Z,-0.77
2022-11-22T02:23:03.463Z,-0.63
2022-11-22T02:26:06.797Z,-0.78
2022-11-22T02:29:09.706Z,-0.72
2022-11-22T02:32:12.728Z,-0.58
2022-11-22T02:35:21.775Z,-0.60
2022-11-22T02:38:27.012Z,-0.50
2022-11-22T02:41:29.756Z,-0.51
2022-11-22T02:44:33.347Z,-0.52
2022-11-22T02:47:36.027Z,-0.50
2022-11-22T02:50:39.783Z,-0.40
2022-11-22T02:53:50.558Z,-0.49
2022-11-22T02:56:53.548Z,-0.36
2022-11-22T02:59:56.391Z,-0.38
2022-11-22T03:02:59.360Z,-0.31
2022-11-22T03:06:02.681Z,0.03
2022-11-22T03:09:05.820Z,-0.03
2022-11-22T03:12:08.621Z,-0.08
2022-11-22T03:15:11.635Z,0.03
2022-11-22T03:18:14.326Z,-0.04
2022-11-22T03:21:17.397Z,-0.01
2022-11-22T03:24:20.387Z,0.04
2022-11-22T03:27:23.717Z,0.12
2022-11-22T03:30:26.474Z,0.25
2022-11-22T03:33:29.421Z,0.32
2022-11-22T03:36:32.069Z,0.35
2022-11-22T03:39:35.012Z,0.38
2022-11-22T03:42:37.640Z,0.43
2022-11-22T03:45:45.734Z,0.43
2022-11-22T03:48:48.360Z,0.44
2022-11-22T03:51:51.446Z,0.47
2022-11-22T03:54:54.108Z,0.53
2022-11-22T03:57:57.207Z,0.43
2022-11-22T04:01:00.138Z,0.58
2022-11-22T04:04:03.207Z,0.59
2022-11-22T04:07:05.925Z,0.67
2022-11-22T04:10:09.904Z,0.64
2022-11-22T04:13:12.483Z,0.60
2022-11-22T04:16:15.583Z,0.59
2022-11-22T04:19:18.631Z,0.52
2022-11-22T04:22:21.797Z,0.48
2022-11-22T04:25:29.541Z,0.37
2022-11-22T04:29:01.838Z,0.27
2022-11-22T04:32:13.700Z,0.09
2022-11-22T04:35:18.632Z,-0.10
2022-11-22T04:38:22.144Z,-0.14
2022-11-22T04:41:25.164Z,-0.13
2022-11-22T04:44:43.030Z,-0.03
2022-11-22T04:48:01.321Z,-0.07
2022-11-22T04:51:24.594Z,-0.01
2022-11-22T04:54:31.454Z,-0.09
2022-11-22T04:57:34.161Z,-0.14
2022-11-22T05:00:37.965Z,-0.16
2022-11-22T05:03:40.724Z,-0.27
2022-11-22T05:06:43.743Z,-0.36
2022-11-22T05:09:46.471Z,-0.23
2022-11-22T05:12:49.474Z,-0.19
2022-11-22T05:15:52.140Z,-0.18
2022-11-22T05:19:01.170Z,-0.12
2022-11-22T05:22:04.824Z,-0.14
2022-11-22T05:25:08.449Z,-0.02
2022-11-22T05:28:11.404Z,-0.02
2022-11-22T05:31:17.603Z,-0.03
2022-11-22T05:34:20.455Z,0.06
2022-11-22T05:37:23.559Z,0.02
2022-11-22T05:40:27.227Z,0.10
2022-11-22T07:23:30.712Z,0.44
2022-11-22T07:26:33.939Z,0.48
2022-11-22T07:29:36.525Z,0.52
2022-11-22T07:32:39.417Z,0.57
2022-11-22T07:35:42.321Z,0.63
2022-11-22T07:38:45.731Z,0.60
2022-11-22T07:41:48.342Z,0.67
2022-11-22T07:44:51.258Z,0.71
2022-11-22T07:47:53.897Z,0.77
2022-11-22T07:50:56.915Z,0.93
2022-11-22T07:53:59.600Z,1.09
2022-11-22T07:57:02.513Z,1.17
2022-11-22T08:00:06.278Z,1.19
2022-11-22T08:03:09.289Z,1.27
2022-11-22T08:06:13.157Z,1.32
2022-11-22T08:09:16.164Z,1.42
2022-11-22T08:12:18.778Z,1.51
2022-11-22T08:15:21.672Z,1.66
2022-11-22T08:18:24.311Z,1.87
2022-11-22T08:21:27.245Z,2.08
2022-11-22T08:24:29.897Z,2.29
2022-11-22T08:27:32.826Z,2.10
2022-11-22T08:30:35.481Z,1.87
2022-11-22T08:33:38.470Z,2.14
2022-11-22T08:36:41.214Z,1.99
2022-11-22T08:39:44.133Z,1.94
2022-11-22T08:42:46.738Z,2.02
2022-11-22T08:45:54.533Z,1.99
2022-11-22T08:48:57.188Z,2.09
2022-11-22T08:52:00.148Z,2.20
2022-11-22T08:55:02.681Z,2.30
2022-11-22T08:58:05.610Z,2.43
2022-11-22T09:01:14.447Z,2.48
2022-11-22T09:04:17.415Z,2.77
2022-11-22T09:10:42.898Z,3.20
2022-11-22T09:13:45.924Z,3.39
2022-11-22T09:16:48.921Z,3.25
2022-11-22T09:19:51.928Z,3.46
2022-11-22T09:22:55.052Z,3.51
2022-11-22T09:26:07.420Z,3.71
2022-11-22T09:29:10.528Z,3.46
2022-11-22T09:32:17.211Z,3.55
2022-11-22T09:35:20.340Z,3.73
2022-11-22T09:38:23.004Z,3.96
2022-11-22T09:42:10.560Z,4.12
2022-11-22T09:45:55.562Z,4.05
2022-11-22T09:49:24.465Z,4.02
2022-11-22T09:52:30.065Z,4.23
2022-11-22T09:55:39.338Z,4.26
2022-11-22T09:58:51.573Z,4.33
2022-11-22T10:02:21.545Z,4.35
2022-11-22T10:05:27.957Z,4.20
2022-11-22T10:08:33.694Z,4.17
2022-11-22T10:11:50.372Z,4.25
2022-11-22T10:15:04.906Z,4.33
2022-11-22T10:18:24.449Z,4.37
2022-11-22T10:21:27.316Z,4.62
2022-11-22T10:24:30.548Z,4.90
2022-11-22T10:27:33.441Z,4.93
2022-11-22T10:30:42.781Z,4.95
2022-11-22T10:34:23.663Z,5.10
2022-11-22T10:37:42.108Z,5.23
2022-11-22T10:41:13.634Z,5.44
2022-11-22T10:44:31.270Z,5.66
2022-11-22T10:47:50.311Z,5.76
2022-11-22T10:51:33.577Z,5.63
2022-11-22T10:55:11.053Z,5.70
2022-11-22T10:58:45.066Z,5.77
2022-11-22T11:01:53.895Z,5.67
2022-11-22T11:04:59.384Z,5.59
2022-11-22T11:08:36.687Z,5.58
2022-11-22T11:11:27.131Z,5.50
2022-11-22T11:14:53.476Z,5.55
2022-11-22T11:18:01.798Z,5.55
2022-11-22T11:21:07.936Z,5.56
2022-11-22T11:24:14.221Z,5.86
2022-11-22T11:27:19.416Z,6.05
2022-11-22T11:30:22.381Z,6.08
2022-11-22T11:33:30.636Z,6.20
2022-11-22T11:36:33.773Z,6.29
2022-11-22T11:39:40.572Z,6.41
2022-11-22T11:42:46.326Z,6.32
2022-11-22T11:45:49.039Z,6.32
2022-11-22T11:49:14.126Z,6.21
2022-11-22T11:52:23.424Z,6.18
2022-11-22T11:55:31.615Z,6.06
2022-11-22T11:58:34.275Z,5.95
2022-11-22T12:01:44.664Z,5.87
2022-11-22T12:04:59.876Z,5.93
2022-11-22T12:08:03.273Z,5.87
2022-11-22T12:11:10.323Z,5.92
2022-11-22T12:14:19.895Z,5.92
2022-11-22T12:17:26.304Z,5.93
2022-11-22T12:20:49.875Z,6.00
2022-11-22T12:24:48.504Z,6.12
2022-11-22T12:27:46.860Z,6.09
2022-11-22T12:31:01.553Z,6.20
2022-11-22T12:34:34.257Z,6.23
2022-11-22T12:37:57.198Z,6.25
2022-11-22T12:41:04.915Z,6.14
2022-11-22T12:44:14.496Z,6.24
2022-11-22T12:47:23.325Z,6.18
2022-11-22T12:50:53.239Z,6.12
2022-11-22T12:54:00.778Z,6.02
2022-11-22T12:57:14.385Z,6.12
2022-11-22T13:00:24.954Z,6.07
2022-11-22T13:03:35.857Z,6.08
2022-11-22T13:07:12.095Z,6.15
2022-11-22T13:10:33.120Z,6.13
2022-11-22T13:13:46.433Z,6.20
2022-11-22T13:16:54.079Z,6.08
2022-11-22T13:20:18.220Z,6.02
2022-11-22T13:23:41.692Z,6.06
2022-11-22T13:26:50.314Z,6.12
2022-11-22T13:29:57.261Z,6.04
2022-11-22T13:33:01.013Z,6.10
2022-11-22T13:36:32.261Z,6.11
2022-11-22T13:39:41.860Z,6.16
2022-11-22T13:42:44.879Z,6.12
2022-11-22T13:45:49.137Z,5.99
2022-11-22T13:48:52.192Z,5.77
2022-11-22T13:51:57.484Z,5.55
2022-11-22T13:55:22.091Z,5.34
2022-11-22T13:58:24.631Z,5.35
2022-11-22T14:01:33.837Z,5.21
2022-11-22T14:04:39.222Z,5.11
2022-11-22T14:07:42.808Z,5.12
2022-11-22T14:10:45.740Z,5.07
2022-11-22T14:14:15.437Z,4.95
2022-11-22T14:17:41.530Z,4.93
2022-11-22T14:21:18.861Z,4.89
2022-11-22T14:24:51.111Z,4.83
2022-11-22T14:28:12.025Z,4.78
2022-11-22T14:31:23.429Z,4.82
2022-11-22T14:34:30.692Z,4.72
2022-11-22T14:37:43.871Z,4.74
2022-11-22T14:40:48.059Z,4.70
2022-11-22T14:43:53.913Z,4.70
2022-11-22T14:47:03.719Z,4.63
2022-11-22T14:50:23.919Z,4.57
2022-11-22T14:53:32.265Z,4.54
2022-11-22T14:56:36.231Z,4.51
2022-11-22T15:00:02.911Z,4.44
2022-11-22T15:03:44.013Z,4.44
2022-11-22T15:09:14.161Z,4.38
2022-11-22T15:10:53.045Z,4.36
2022-11-22T15:14:23.374Z,4.31
2022-11-22T15:58:49.904Z,3.86
2022-11-22T16:01:56.547Z,3.85
2022-11-22T16:06:08.217Z,3.79
2022-11-22T16:08:32.675Z,3.75
2022-11-22T16:11:38.651Z,3.83
2022-11-22T16:14:48.013Z,3.81
2022-11-22T16:17:59.189Z,3.74
2022-11-22T16:21:16.179Z,3.80
2022-11-22T16:24:19.330Z,3.74
2022-11-22T16:27:21.920Z,3.84
2022-11-22T16:30:24.970Z,3.73
2022-11-22T16:33:27.846Z,3.70
2022-11-22T16:36:32.140Z,3.77
2022-11-22T16:39:35.012Z,3.67
2022-11-22T16:42:45.121Z,3.70
2022-11-22T16:45:49.247Z,3.73
2022-11-22T16:48:52.232Z,3.63
2022-11-22T16:51:54.911Z,3.54
2022-11-22T16:54:58.013Z,3.48
2022-11-22T16:58:00.861Z,3.51
2022-11-22T17:01:03.811Z,3.46
2022-11-22T17:04:06.456Z,3.37
2022-11-22T17:07:11.124Z,3.35
2022-11-22T17:10:14.304Z,3.30
2022-11-22T17:13:25.364Z,3.33
2022-11-22T17:16:28.051Z,3.32
2022-11-22T17:19:52.241Z,3.30
2022-11-22T17:22:54.095Z,3.29
2022-11-22T17:25:57.219Z,3.28
2022-11-22T17:28:59.958Z,3.31
2022-11-22T17:32:02.858Z,3.24
2022-11-22T17:35:06.077Z,3.32
2022-11-22T17:38:11.637Z,3.28
2022-11-22T17:41:14.308Z,3.30
2022-11-22T17:44:18.058Z,3.27
2022-11-22T17:47:20.672Z,3.31
2022-11-22T17:50:23.677Z,3.24
2022-11-22T17:53:26.275Z,3.26
2022-11-22T17:56:30.531Z,3.28
2022-11-22T17:59:33.352Z,3.28
2022-11-22T18:02:36.635Z,3.27
2022-11-22T18:05:39.589Z,3.28
2022-11-22T18:08:46.673Z,3.29
2022-11-22T18:11:50.319Z,3.29
2022-11-22T18:14:53.605Z,3.25
2022-11-22T18:17:56.541Z,3.35
2022-11-22T18:20:59.158Z,3.32
2022-11-22T18:24:02.243Z,3.35
2022-11-22T18:27:04.818Z,3.33
2022-11-22T18:30:08.477Z,3.35
2022-11-22T18:33:11.512Z,3.38
2022-11-22T18:36:54.016Z,3.38
2022-11-22T18:39:49.121Z,3.45
2022-11-22T18:42:56.274Z,3.41
2022-11-22T18:46:03.745Z,3.50
2022-11-22T18:49:06.851Z,3.46
2022-11-22T18:52:12.006Z,3.41
2022-11-22T18:55:18.426Z,3.49
2022-11-22T18:58:21.069Z,3.52
2022-11-22T19:01:26.316Z,3.46
2022-11-22T19:04:29.984Z,3.48
2022-11-22T19:07:33.160Z,3.51
2022-11-22T19:10:35.881Z,3.48
2022-11-22T19:13:41.086Z,3.43
2022-11-22T19:16:43.757Z,3.49
2022-11-22T19:19:47.791Z,3.47
2022-11-22T19:22:50.733Z,3.51
2022-11-22T19:25:53.815Z,3.50
2022-11-22T19:28:57.729Z,3.50
2022-11-22T19:32:00.824Z,3.57
2022-11-22T19:35:03.786Z,3.52
2022-11-22T19:38:06.757Z,3.53
2022-11-22T19:41:14.381Z,3.51
2022-11-22T19:44:17.477Z,3.59
2022-11-22T19:47:20.170Z,3.52
2022-11-22T19:50:23.088Z,3.57
2022-11-22T19:53:25.973Z,3.62
2022-11-22T19:56:32.413Z,3.60
2022-11-22T19:59:36.956Z,3.66
2022-11-22T20:02:40.298Z,3.64
2022-11-22T20:05:43.325Z,3.63
2022-11-22T20:08:46.355Z,3.65
2022-11-22T20:11:49.422Z,3.74
2022-11-22T20:14:52.025Z,3.74
2022-11-22T20:17:55.037Z,3.73
2022-11-22T20:21:02.359Z,3.71
2022-11-22T20:24:06.395Z,3.67
2022-11-22T20:27:10.154Z,3.74
2022-11-22T20:30:13.801Z,3.73
2022-11-22T20:33:16.506Z,3.79
2022-11-22T20:36:20.900Z,3.70
2022-11-22T20:39:24.110Z,3.75
2022-11-22T20:42:34.144Z,3.74
2022-11-22T20:45:37.398Z,3.73
2022-11-22T20:48:41.984Z,3.73
2022-11-22T20:51:44.884Z,3.74
2022-11-22T20:54:47.935Z,3.69
2022-11-22T20:57:50.531Z,3.70
2022-11-22T21:00:54.434Z,3.74
2022-11-22T21:03:57.349Z,3.66
2022-11-22T21:07:00.325Z,3.68
2022-11-22T21:10:03.118Z,3.70
2022-11-22T21:13:06.478Z,3.68
2022-11-22T21:16:24.754Z,3.66
2022-11-22T21:19:28.607Z,3.68
2022-11-22T21:22:32.037Z,3.71
2022-11-22T21:25:35.136Z,3.68
2022-11-22T21:28:38.928Z,3.66
2022-11-22T21:31:41.901Z,3.60
2022-11-22T21:34:44.589Z,3.61
2022-11-22T21:37:47.485Z,3.67
2022-11-22T21:41:05.578Z,3.59
2022-11-22T21:44:17.928Z,3.52
2022-11-22T21:47:23.911Z,3.54
2022-11-22T21:50:26.884Z,3.52
2022-11-22T21:53:30.313Z,3.52
2022-11-22T21:56:33.248Z,3.49
2022-11-22T21:59:36.016Z,3.52
2022-11-22T22:02:39.061Z,3.51
2022-11-22T22:05:48.358Z,3.62
2022-11-22T22:08:50.860Z,3.53
2022-11-22T22:11:53.657Z,3.60
2022-11-22T22:14:56.296Z,3.52
2022-11-22T22:17:59.186Z,3.52
2022-11-22T22:21:03.503Z,3.50
2022-11-22T22:24:06.698Z,3.58
2022-11-22T22:27:09.300Z,3.53
2022-11-22T22:30:12.715Z,3.59
2022-11-22T22:33:15.349Z,3.61
2022-11-22T22:36:18.166Z,3.61
2022-11-22T22:39:20.777Z,3.66
2022-11-22T22:42:23.739Z,3.64
2022-11-22T22:45:26.292Z,3.62
2022-11-22T22:48:29.464Z,3.63
2022-11-22T22:51:33.408Z,3.54
2022-11-22T22:54:36.484Z,3.51
2022-11-22T22:57:39.068Z,3.46
2022-11-22T23:00:41.932Z,3.49
2022-11-22T23:03:53.277Z,3.48
2022-11-22T23:06:56.155Z,3.44
2022-11-22T23:09:58.745Z,3.43
2022-11-22T23:13:01.705Z,3.44
2022-11-22T23:16:06.296Z,3.42
2022-11-22T23:19:09.592Z,3.41
2022-11-22T23:22:12.701Z,3.41
2022-11-22T23:25:15.638Z,3.40
2022-11-22T23:28:18.397Z,3.42
2022-11-22T23:31:22.001Z,3.38
2022-11-22T23:34:24.703Z,3.41
2022-11-22T23:37:27.556Z,3.41
2022-11-22T23:40:31.125Z,3.40
2022-11-22T23:43:34.061Z,3.36
2022-11-22T23:46:36.892Z,3.38
2022-11-22T23:49:39.865Z,3.36
2022-11-22T23:52:42.497Z,3.35
2022-11-22T23:55:48.374Z,3.40
2022-11-22T23:58:51.566Z,3.33
